createdAt,value
2022-10-24T00:01:16.109Z,99946.50
2022-10-24T00:03:43.118Z,99945.19
2022-10-24T00:06:11.848Z,99950.00
2022-10-24T00:08:40.838Z,99945.09
2022-10-24T00:11:15.605Z,99930.38
2022-10-24T00:13:43.575Z,99930.88
2022-10-24T00:16:11.799Z,99937.78
2022-10-24T00:18:38.699Z,99933.16
2022-10-24T00:21:06.299Z,99918.84
2022-10-24T00:23:33.262Z,99942.59
2022-10-24T00:26:04.430Z,99917.44
2022-10-24T00:28:33.460Z,99930.25
2022-10-24T00:31:01.062Z,99930.59
2022-10-24T00:33:28.202Z,99937.19
2022-10-24T00:35:55.175Z,99916.16
2022-10-24T00:38:22.196Z,99930.66
2022-10-24T00:40:49.185Z,99929.00
2022-10-24T00:43:20.525Z,99936.72
2022-10-24T00:45:57.516Z,99928.31
2022-10-24T00:48:30.578Z,99932.16
2022-10-24T00:51:01.880Z,99927.03
2022-10-24T00:53:32.013Z,99925.09
2022-10-24T00:56:02.752Z,99924.91
2022-10-24T00:58:32.692Z,99929.06
2022-10-24T01:01:00.021Z,99918.44
2022-10-24T01:03:27.530Z,99911.69
2022-10-24T01:06:11.406Z,99930.34
2022-10-24T01:09:18.411Z,99918.25
2022-10-24T01:12:11.252Z,99922.09
2022-10-24T01:14:53.117Z,99935.22
2022-10-24T01:17:43.429Z,99924.31
2022-10-24T01:20:42.978Z,99930.19
2022-10-24T01:23:17.808Z,99932.94
2022-10-24T01:25:52.040Z,99922.50
2022-10-24T01:28:27.668Z,99923.38
2022-10-24T01:31:08.030Z,99924.19
2022-10-24T01:33:42.223Z,99937.84
2022-10-24T01:36:30.947Z,99926.06
2022-10-24T01:39:02.498Z,99911.94
2022-10-24T01:41:31.462Z,99915.25
2022-10-24T01:44:08.530Z,99936.22
2022-10-24T01:46:40.253Z,99920.38
2022-10-24T01:49:14.739Z,99919.03
2022-10-24T01:51:42.698Z,99925.34
2022-10-24T01:54:10.943Z,99929.22
2022-10-24T01:56:37.859Z,99927.25
2022-10-24T01:59:28.602Z,99929.13
2022-10-24T02:01:56.907Z,99923.13
2022-10-24T02:04:27.053Z,99921.47
2022-10-24T02:06:56.564Z,99921.56
2022-10-24T02:09:24.705Z,99919.97
2022-10-24T02:11:53.746Z,99909.03
2022-10-24T02:14:49.220Z,99916.66
2022-10-24T02:17:17.298Z,99916.66
2022-10-24T02:19:45.187Z,99926.00
2022-10-24T02:22:28.184Z,99922.97
2022-10-24T02:25:03.734Z,99930.91
2022-10-24T02:27:33.886Z,99926.53
2022-10-24T02:30:09.561Z,99920.22
2022-10-24T02:32:41.249Z,99924.41
2022-10-24T02:35:10.170Z,99917.84
2022-10-24T02:37:43.132Z,99909.09
2022-10-24T02:40:13.781Z,99922.19
2022-10-24T02:42:42.478Z,99920.31
2022-10-24T02:45:10.824Z,99920.63
2022-10-24T02:47:41.781Z,99909.75
2022-10-24T02:50:09.528Z,99901.31
2022-10-24T02:52:38.621Z,99920.00
2022-10-24T02:55:06.726Z,99912.34
2022-10-24T02:57:33.718Z,99912.38
2022-10-24T03:00:00.726Z,99902.25
2022-10-24T03:02:27.960Z,99912.13
2022-10-24T03:04:55.068Z,99904.47
2022-10-24T03:07:22.028Z,99908.59
2022-10-24T03:09:49.490Z,99908.06
2022-10-24T03:12:17.919Z,99916.56
2022-10-24T03:14:45.313Z,99906.81
2022-10-24T03:17:12.198Z,99914.47
2022-10-24T03:19:39.151Z,99930.84
2022-10-24T03:22:06.104Z,99915.50
2022-10-24T03:24:43.803Z,99925.34
2022-10-24T03:27:11.976Z,99916.56
2022-10-24T03:29:38.837Z,99909.47
2022-10-24T03:32:06.553Z,99913.00
2022-10-24T03:34:33.695Z,99926.41
2022-10-24T03:37:00.944Z,99924.28
2022-10-24T03:39:27.772Z,99914.47
2022-10-24T03:41:54.741Z,99915.84
2022-10-24T03:44:21.665Z,99916.72
2022-10-24T03:46:48.557Z,99906.56
2022-10-24T03:49:15.360Z,99912.88
2022-10-24T03:51:42.293Z,99924.38
2022-10-24T03:54:09.598Z,99917.78
2022-10-24T03:56:36.763Z,99910.94
2022-10-24T03:59:03.613Z,99916.44
2022-10-24T04:01:30.653Z,99917.28
2022-10-24T04:03:57.764Z,99913.47
2022-10-24T04:06:24.728Z,99917.84
2022-10-24T04:08:51.562Z,99920.03
2022-10-24T04:11:18.587Z,99916.19
2022-10-24T04:13:45.613Z,99894.59
2022-10-24T04:16:12.508Z,99889.97
2022-10-24T04:18:39.314Z,99908.03
2022-10-24T04:21:06.787Z,99906.69
2022-10-24T04:23:36.987Z,99911.38
2022-10-24T04:26:04.463Z,99910.28
2022-10-24T04:28:31.342Z,99908.09
2022-10-24T04:30:58.635Z,99907.03
2022-10-24T04:33:26.246Z,99905.38
2022-10-24T04:35:53.289Z,99911.41
2022-10-24T04:38:20.489Z,99902.69
2022-10-24T04:40:53.463Z,99906.00
2022-10-24T04:43:21.957Z,99904.38
2022-10-24T04:45:48.984Z,99906.84
2022-10-24T04:48:16.872Z,99913.38
2022-10-24T04:50:45.035Z,99902.72
2022-10-24T04:53:12.722Z,99911.75
2022-10-24T04:55:39.737Z,99915.03
2022-10-24T04:58:06.834Z,99921.88
2022-10-24T05:00:34.002Z,99904.94
2022-10-24T05:03:00.937Z,99926.25
2022-10-24T05:05:27.968Z,99912.06
2022-10-24T05:07:54.978Z,99927.91
2022-10-24T05:10:21.844Z,99921.34
2022-10-24T05:12:48.931Z,99910.41
2022-10-24T05:15:16.062Z,99929.50
2022-10-24T05:17:42.872Z,99931.41
2022-10-24T05:20:10.827Z,99934.91
2022-10-24T05:22:38.082Z,99925.59
2022-10-24T05:25:05.866Z,99940.34
2022-10-24T05:27:32.846Z,99938.97
2022-10-24T05:30:00.099Z,99944.41
2022-10-24T05:32:27.006Z,99937.53
2022-10-24T05:34:53.935Z,99935.59
2022-10-24T05:37:20.830Z,99942.88
2022-10-24T05:39:47.945Z,99948.06
2022-10-24T05:42:15.584Z,99941.44
2022-10-24T05:44:42.650Z,99944.38
2022-10-24T05:47:09.542Z,99956.13
2022-10-24T05:49:36.917Z,99950.91
2022-10-24T05:52:04.182Z,99957.91
2022-10-24T05:54:42.422Z,99958.22
2022-10-24T05:57:18.111Z,99938.09
2022-10-24T05:59:45.007Z,99950.63
2022-10-24T06:02:21.811Z,99960.78
2022-10-24T06:04:50.683Z,99961.72
2022-10-24T06:07:19.022Z,99961.28
2022-10-24T06:09:49.150Z,99962.22
2022-10-24T06:12:16.274Z,99968.31
2022-10-24T06:14:44.671Z,99961.97
2022-10-24T06:17:12.254Z,99962.34
2022-10-24T06:19:40.285Z,99954.59
2022-10-24T06:22:08.584Z,99971.09
2022-10-24T06:24:37.081Z,99948.09
2022-10-24T06:27:05.795Z,99968.75
2022-10-24T06:29:33.028Z,99958.59
2022-10-24T06:31:59.976Z,99966.59
2022-10-24T06:34:27.165Z,99964.59
2022-10-24T06:36:54.612Z,99967.56
2022-10-24T06:39:21.933Z,99963.00
2022-10-24T06:41:48.973Z,99942.59
2022-10-24T06:44:16.956Z,99958.94
2022-10-24T06:46:44.850Z,99967.13
2022-10-24T06:49:13.660Z,99961.97
2022-10-24T06:51:41.194Z,99975.22
2022-10-24T06:54:08.759Z,99973.56
2022-10-24T06:56:35.766Z,99968.63
2022-10-24T06:59:02.511Z,99974.50
2022-10-24T07:01:31.715Z,99977.69
2022-10-24T07:03:58.727Z,99981.19
2022-10-24T07:06:28.873Z,99960.47
2022-10-24T07:08:59.545Z,99971.78
2022-10-24T07:11:27.011Z,99974.03
2022-10-24T07:13:57.931Z,99974.09
2022-10-24T07:16:30.048Z,99958.53
2022-10-24T07:18:57.079Z,99974.38
2022-10-24T07:21:26.671Z,99958.78
2022-10-24T07:23:54.799Z,99969.09
2022-10-24T07:26:23.625Z,99961.59
2022-10-24T07:28:54.768Z,99954.59
2022-10-24T07:31:24.136Z,99964.41
2022-10-24T07:33:52.956Z,99959.19
2022-10-24T07:36:22.870Z,99960.47
2022-10-24T07:38:52.621Z,99962.06
2022-10-24T07:41:19.665Z,99962.03
2022-10-24T07:43:47.156Z,99958.06
2022-10-24T07:46:17.084Z,99957.88
2022-10-24T07:48:44.357Z,99964.13
2022-10-24T07:51:13.716Z,99956.56
2022-10-24T07:53:41.993Z,99953.22
2022-10-24T07:56:14.545Z,99953.31
2022-10-24T07:58:43.627Z,99951.56
2022-10-24T08:01:15.364Z,99957.84
2022-10-24T08:03:42.611Z,99959.56
2022-10-24T08:06:13.706Z,99955.22
2022-10-24T08:08:41.006Z,99945.34
2022-10-24T08:11:10.671Z,99958.13
2022-10-24T08:13:38.797Z,99957.25
2022-10-24T08:16:11.204Z,99958.66
2022-10-24T08:18:39.969Z,99960.75
2022-10-24T08:21:10.322Z,99944.78
2022-10-24T08:23:40.121Z,99951.19
2022-10-24T08:26:08.666Z,99941.38
2022-10-24T08:28:36.787Z,99931.41
2022-10-24T08:31:06.956Z,99938.97
2022-10-24T08:33:35.395Z,99944.78
2022-10-24T08:36:06.155Z,99950.09
2022-10-24T08:38:33.461Z,99939.53
2022-10-24T08:41:01.297Z,99939.53
2022-10-24T08:43:28.336Z,99938.69
2022-10-24T08:46:00.891Z,99939.13
2022-10-24T08:48:34.857Z,99941.78
2022-10-24T08:51:27.763Z,99944.44
2022-10-24T08:54:01.301Z,99939.28
2022-10-24T08:56:32.305Z,99933.78
2022-10-24T08:59:03.527Z,99930.94
2022-10-24T09:01:43.168Z,99928.34
2022-10-24T09:04:14.885Z,99923.88
2022-10-24T09:06:42.834Z,99935.59
2022-10-24T09:09:23.486Z,99920.19
2022-10-24T09:11:56.239Z,99934.06
2022-10-24T09:14:36.901Z,99929.13
2022-10-24T09:20:26.742Z,99916.69
2022-10-24T09:22:59.920Z,99912.28
2022-10-24T09:25:35.140Z,99909.41
2022-10-24T09:28:06.087Z,99916.78
2022-10-24T09:30:36.900Z,99909.00
2022-10-24T09:33:28.338Z,99909.22
2022-10-24T09:36:01.629Z,99908.22
2022-10-24T09:38:33.918Z,99902.22
2022-10-24T09:41:26.662Z,99902.22
2022-10-24T09:43:56.850Z,99898.53
2022-10-24T09:46:39.029Z,99897.53
2022-10-24T09:49:22.926Z,99906.44
2022-10-24T09:52:07.097Z,99894.25
2022-10-24T09:54:36.487Z,99895.19
2022-10-24T09:57:12.963Z,99895.03
2022-10-24T09:59:46.479Z,99881.22
2022-10-24T10:02:14.765Z,99888.34
2022-10-24T10:04:42.819Z,99884.78
2022-10-24T10:07:13.008Z,99884.47
2022-10-24T10:09:55.624Z,99874.09
2022-10-24T10:12:38.059Z,99884.31
2022-10-24T10:15:18.517Z,99875.19
2022-10-24T10:17:55.427Z,99871.31
2022-10-24T10:20:31.607Z,99863.88
2022-10-24T10:23:33.711Z,99866.53
2022-10-24T10:26:42.056Z,99856.06
2022-10-24T10:29:18.692Z,99863.03
2022-10-24T10:31:51.164Z,99847.03
2022-10-24T10:34:41.096Z,99849.28
2022-10-24T10:37:29.371Z,99850.06
2022-10-24T10:40:15.557Z,99850.03
2022-10-24T10:43:06.026Z,99839.56
2022-10-24T10:45:54.970Z,99846.19
2022-10-24T10:48:39.954Z,99842.69
2022-10-24T10:51:36.107Z,99849.97
2022-10-24T10:54:19.380Z,99846.66
2022-10-24T10:56:55.799Z,99836.28
2022-10-24T10:59:32.230Z,99843.94
2022-10-24T11:02:14.620Z,99806.16
2022-10-24T11:04:51.918Z,99830.88
2022-10-24T11:07:45.314Z,99826.56
2022-10-24T11:10:19.110Z,99825.44
2022-10-24T11:12:46.926Z,99816.31
2022-10-24T11:15:28.441Z,99823.88
2022-10-24T11:18:02.535Z,99827.59
2022-10-24T11:20:45.681Z,99821.97
2022-10-24T11:23:20.515Z,99815.19
2022-10-24T11:26:03.393Z,99821.69
2022-10-24T11:28:53.047Z,99801.56
2022-10-24T11:31:29.131Z,99818.25
2022-10-24T11:34:06.163Z,99808.25
2022-10-24T11:36:53.427Z,99804.72
2022-10-24T11:39:35.424Z,99805.91
2022-10-24T11:42:19.806Z,99812.69
2022-10-24T11:45:04.750Z,99801.22
2022-10-24T11:47:50.034Z,99790.38
2022-10-24T11:50:34.992Z,99788.09
2022-10-24T11:53:31.220Z,99787.88
2022-10-24T11:56:15.870Z,99787.47
2022-10-24T11:59:07.487Z,99792.69
2022-10-24T12:01:40.876Z,99791.34
2022-10-24T12:04:13.930Z,99772.91
2022-10-24T12:06:55.918Z,99781.88
2022-10-24T12:09:36.355Z,99775.84
2022-10-24T12:12:37.912Z,99779.53
2022-10-24T12:15:15.340Z,99780.38
2022-10-24T12:17:49.322Z,99775.56
2022-10-24T12:20:24.400Z,99766.75
2022-10-24T12:22:53.367Z,99765.28
2022-10-24T12:25:35.658Z,99768.63
2022-10-24T12:28:05.921Z,99774.94
2022-10-24T12:30:36.055Z,99770.09
2022-10-24T12:33:12.884Z,99766.50
2022-10-24T12:35:49.213Z,99770.00
2022-10-24T12:38:28.543Z,99759.53
2022-10-24T12:41:21.581Z,99754.72
2022-10-24T12:43:49.607Z,99758.00
2022-10-24T12:46:28.703Z,99756.38
2022-10-24T12:48:59.377Z,99756.47
2022-10-24T12:51:33.241Z,99756.91
2022-10-24T12:54:17.379Z,99762.81
2022-10-24T12:56:54.207Z,99762.34
2022-10-24T12:59:30.376Z,99754.69
2022-10-24T13:02:16.051Z,99764.63
2022-10-24T13:05:04.628Z,99761.78
2022-10-24T13:07:41.573Z,99763.53
2022-10-24T13:10:37.982Z,99752.69
2022-10-24T13:13:27.120Z,99757.53
2022-10-24T13:16:03.162Z,99760.72
2022-10-24T13:18:56.849Z,99748.28
2022-10-24T13:24:17.671Z,99749.91
2022-10-24T13:26:53.749Z,99729.66
2022-10-24T13:29:23.750Z,99747.41
2022-10-24T13:32:19.946Z,99746.13
2022-10-24T13:34:51.086Z,99751.94
2022-10-24T13:37:45.231Z,99744.72
2022-10-24T13:40:21.895Z,99739.91
2022-10-24T13:42:54.579Z,99743.19
2022-10-24T13:45:44.936Z,99730.44
2022-10-24T13:48:28.774Z,99718.66
2022-10-24T13:51:04.949Z,99736.69
2022-10-24T13:53:42.253Z,99731.41
2022-10-24T13:56:11.342Z,99722.53
2022-10-24T13:58:44.349Z,99731.00
2022-10-24T14:01:19.426Z,99726.44
2022-10-24T14:03:48.143Z,99726.41
2022-10-24T14:06:15.682Z,99725.88
2022-10-24T14:08:53.404Z,99725.78
2022-10-24T14:11:31.471Z,99733.75
2022-10-24T14:14:04.295Z,99732.13
2022-10-24T14:16:36.012Z,99724.50
2022-10-24T14:19:27.095Z,99729.66
2022-10-24T14:21:58.384Z,99722.78
2022-10-24T14:24:26.021Z,99719.56
2022-10-24T14:26:56.892Z,99719.94
2022-10-24T14:29:27.972Z,99719.09
2022-10-24T14:32:10.047Z,99714.19
2022-10-24T14:34:39.385Z,99712.53
2022-10-24T14:37:17.141Z,99710.47
2022-10-24T14:39:45.080Z,99720.06
2022-10-24T14:42:16.959Z,99718.00
2022-10-24T14:44:46.582Z,99715.53
2022-10-24T14:47:32.885Z,99721.84
2022-10-24T14:50:00.712Z,99711.28
2022-10-24T14:52:37.289Z,99712.00
2022-10-24T14:55:13.930Z,99726.25
2022-10-24T14:57:49.258Z,99724.03
2022-10-24T15:00:22.608Z,99719.00
2022-10-24T15:02:53.741Z,99718.44
2022-10-24T15:05:20.967Z,99722.97
2022-10-24T15:08:22.028Z,99723.06
2022-10-24T15:10:48.842Z,99721.00
2022-10-24T15:13:17.679Z,99724.84
2022-10-24T15:15:45.815Z,99729.06
2022-10-24T15:18:21.137Z,99721.66
2022-10-24T15:20:51.146Z,99722.88
2022-10-24T15:23:31.460Z,99733.00
2022-10-24T15:26:07.980Z,99724.56
2022-10-24T15:28:36.854Z,99728.72
2022-10-24T15:31:04.082Z,99726.53
2022-10-24T15:33:32.416Z,99723.84
2022-10-24T15:35:59.733Z,99733.22
2022-10-24T15:38:26.784Z,99736.91
2022-10-24T15:40:53.968Z,99734.22
2022-10-24T15:43:21.330Z,99728.44
2022-10-24T15:45:48.357Z,99735.38
2022-10-24T15:48:15.540Z,99732.19
2022-10-24T15:50:46.210Z,99740.38
2022-10-24T15:53:20.649Z,99736.13
2022-10-24T15:55:48.304Z,99734.31
2022-10-24T15:58:17.294Z,99732.59
2022-10-24T16:00:44.588Z,99741.56
2022-10-24T16:03:15.688Z,99741.34
2022-10-24T16:05:47.347Z,99751.03
2022-10-24T16:08:16.327Z,99729.16
2022-10-24T16:10:43.697Z,99744.25
2022-10-24T16:13:14.713Z,99740.34
2022-10-24T16:15:43.528Z,99741.25
2022-10-24T16:18:11.982Z,99731.31
2022-10-24T16:20:39.493Z,99735.50
2022-10-24T16:23:07.621Z,99744.53
2022-10-24T16:25:38.225Z,99734.81
2022-10-24T16:28:07.965Z,99740.50
2022-10-24T16:30:37.523Z,99743.88
2022-10-24T16:33:04.923Z,99743.75
2022-10-24T16:35:34.655Z,99742.38
2022-10-24T16:38:04.101Z,99732.06
2022-10-24T16:40:31.510Z,99745.50
2022-10-24T16:43:00.459Z,99745.16
2022-10-24T16:45:27.473Z,99733.91
2022-10-24T16:47:54.647Z,99721.38
2022-10-24T16:50:26.215Z,99746.84
2022-10-24T16:53:02.787Z,99747.41
2022-10-24T16:55:31.273Z,99742.06
2022-10-24T16:57:59.330Z,99743.09
2022-10-24T17:00:28.457Z,99730.94
2022-10-24T17:02:58.235Z,99725.03
2022-10-24T17:05:27.419Z,99735.19
2022-10-24T17:07:55.532Z,99726.88
2022-10-24T17:10:24.795Z,99737.38
2022-10-24T17:12:52.731Z,99744.75
2022-10-24T17:15:25.100Z,99740.91
2022-10-24T17:17:52.225Z,99728.94
2022-10-24T17:20:19.386Z,99743.31
2022-10-24T17:22:47.025Z,99747.78
2022-10-24T17:25:21.741Z,99746.09
2022-10-24T17:27:49.618Z,99742.72
2022-10-24T17:30:21.400Z,99740.47
2022-10-24T17:32:49.186Z,99746.34
2022-10-24T17:35:18.829Z,99732.41
2022-10-24T17:37:52.458Z,99750.81
2022-10-24T17:40:23.169Z,99750.53
2022-10-24T17:42:50.360Z,99745.06
2022-10-24T17:45:23.089Z,99692.75
2022-10-24T17:47:50.317Z,99746.06
2022-10-24T17:50:18.480Z,99739.09
2022-10-24T17:52:50.985Z,99749.56
2022-10-24T17:58:11.402Z,99754.66
2022-10-24T18:00:39.228Z,99744.91
2022-10-24T18:03:08.690Z,99756.66
2022-10-24T18:05:38.324Z,99748.88
2022-10-24T18:08:07.786Z,99752.94
2022-10-24T18:10:37.483Z,99726.81
2022-10-24T18:13:04.842Z,99737.72
2022-10-24T18:15:31.914Z,99737.44
2022-10-24T18:17:59.089Z,99744.63
2022-10-24T18:20:26.184Z,99733.88
2022-10-24T18:22:53.343Z,99743.47
2022-10-24T18:25:22.912Z,99733.44
2022-10-24T18:27:52.210Z,99738.97
2022-10-24T18:30:22.818Z,99733.13
2022-10-24T18:32:50.335Z,99721.88
2022-10-24T18:35:20.819Z,99734.91
2022-10-24T18:37:48.973Z,99734.44
2022-10-24T18:40:17.096Z,99726.78
2022-10-24T18:43:04.288Z,99739.63
2022-10-24T18:45:32.764Z,99720.63
2022-10-24T18:48:00.232Z,99728.28
2022-10-24T18:50:29.462Z,99736.91
2022-10-24T18:53:04.990Z,99736.44
2022-10-24T18:55:33.817Z,99728.31
2022-10-24T18:58:01.320Z,99723.94
2022-10-24T19:00:30.949Z,99724.44
2022-10-24T19:03:40.140Z,99730.31
2022-10-24T19:06:26.739Z,99734.06
2022-10-24T19:08:54.400Z,99731.63
2022-10-24T19:11:23.482Z,99716.16
2022-10-24T19:13:50.638Z,99721.38
2022-10-24T19:16:22.098Z,99718.25
2022-10-24T19:18:54.955Z,99722.16
2022-10-24T19:21:22.270Z,99698.44
2022-10-24T19:23:50.896Z,99713.72
2022-10-24T19:26:18.236Z,99723.66
2022-10-24T19:28:45.304Z,99711.78
2022-10-24T19:31:13.514Z,99716.81
2022-10-24T19:33:52.896Z,99718.75
2022-10-24T19:36:20.137Z,99712.03
2022-10-24T19:38:47.329Z,99716.59
2022-10-24T19:41:14.547Z,99708.44
2022-10-24T19:43:41.475Z,99711.72
2022-10-24T19:46:19.329Z,99715.59
2022-10-24T19:48:53.329Z,99718.84
2022-10-24T19:51:20.513Z,99717.06
2022-10-24T19:53:49.661Z,99715.41
2022-10-24T19:56:25.575Z,99719.16
2022-10-24T19:58:55.973Z,99709.53
2022-10-24T20:01:25.786Z,99714.56
2022-10-24T20:03:55.151Z,99718.31
2022-10-24T20:06:24.355Z,99718.97
2022-10-24T20:08:51.393Z,99713.22
2022-10-24T20:11:20.949Z,99715.19
2022-10-24T20:13:50.567Z,99701.66
2022-10-24T20:16:18.391Z,99709.00
2022-10-24T20:18:45.912Z,99700.22
2022-10-24T20:21:16.273Z,99705.41
2022-10-24T20:23:43.676Z,99696.50
2022-10-24T20:26:14.427Z,99701.66
2022-10-24T20:28:43.811Z,99702.81
2022-10-24T20:31:21.945Z,99700.38
2022-10-24T20:33:49.842Z,99701.50
2022-10-24T20:36:17.182Z,99688.03
2022-10-24T20:38:44.624Z,99691.13
2022-10-24T20:41:11.567Z,99695.81
2022-10-24T20:43:38.715Z,99692.09
2022-10-24T20:46:06.662Z,99690.63
2022-10-24T20:48:34.726Z,99687.38
2022-10-24T20:51:06.356Z,99649.59
2022-10-24T20:53:42.784Z,99675.75
2022-10-24T20:56:15.583Z,99687.97
2022-10-24T20:58:44.084Z,99690.41
2022-10-24T21:01:14.089Z,99679.31
2022-10-24T21:03:41.377Z,99673.47
2022-10-24T21:06:28.606Z,99680.63
2022-10-24T21:08:58.400Z,99678.66
2022-10-24T21:11:28.022Z,99676.53
2022-10-24T21:13:59.578Z,99670.66
2022-10-24T21:16:27.876Z,99674.03
2022-10-24T21:18:55.132Z,99666.88
2022-10-24T21:21:23.021Z,99677.44
2022-10-24T21:23:52.070Z,99675.47
2022-10-24T21:26:19.879Z,99670.78
2022-10-24T21:28:48.324Z,99669.78
2022-10-24T21:31:17.848Z,99664.09
2022-10-24T21:33:45.605Z,99668.59
2022-10-24T21:36:15.096Z,99660.47
2022-10-24T21:38:46.019Z,99657.53
2022-10-24T21:41:13.025Z,99643.03
2022-10-24T21:43:41.851Z,99653.03
2022-10-24T21:46:10.809Z,99566.88
2022-10-24T21:48:39.208Z,99660.44
2022-10-24T21:51:10.727Z,99650.78
2022-10-24T21:53:42.792Z,99649.28
2022-10-24T21:56:12.839Z,99660.41
2022-10-24T21:58:40.978Z,99664.78
2022-10-24T22:01:13.243Z,99664.41
2022-10-24T22:03:41.811Z,99648.75
2022-10-24T22:06:12.161Z,99658.63
2022-10-24T22:08:39.438Z,99660.28
2022-10-24T22:11:11.615Z,99662.53
2022-10-24T22:13:38.946Z,99653.44
2022-10-24T22:16:07.713Z,99639.47
2022-10-24T22:18:35.239Z,99639.97
2022-10-24T22:21:04.001Z,99648.13
2022-10-24T22:23:31.067Z,99653.00
2022-10-24T22:25:58.942Z,99649.13
2022-10-24T22:28:26.219Z,99630.59
2022-10-24T22:30:53.588Z,99638.53
2022-10-24T22:33:39.346Z,99640.78
2022-10-24T22:36:13.688Z,99652.00
2022-10-24T22:38:41.184Z,99643.44
2022-10-24T22:41:12.289Z,99641.00
2022-10-24T22:43:40.121Z,99636.47
2022-10-24T22:46:22.297Z,99638.44
2022-10-24T22:48:55.621Z,99636.47
2022-10-24T22:51:23.152Z,99641.19
2022-10-24T22:53:50.409Z,99638.44
2022-10-24T22:56:27.753Z,99642.81
2022-10-24T22:58:54.983Z,99639.78
2022-10-24T23:01:36.431Z,99640.59
2022-10-24T23:04:30.301Z,99549.84
2022-10-24T23:07:16.515Z,99639.25
2022-10-24T23:09:43.659Z,99615.31
2022-10-24T23:12:14.630Z,99618.88
2022-10-24T23:14:43.360Z,99633.72
2022-10-24T23:17:14.171Z,99635.47
2022-10-24T23:19:45.999Z,99624.50
2022-10-24T23:22:26.666Z,99643.06
2022-10-24T23:24:56.095Z,99635.03
2022-10-24T23:27:25.442Z,99633.91
2022-10-24T23:29:53.646Z,99629.53
2022-10-24T23:32:23.268Z,99633.59
2022-10-24T23:34:52.097Z,99633.41
2022-10-24T23:37:28.979Z,99653.16
2022-10-24T23:39:56.647Z,99639.81
2022-10-24T23:42:24.114Z,99648.19
2022-10-24T23:44:53.783Z,99649.50
2022-10-24T23:47:52.032Z,99642.06
2022-10-24T23:50:27.254Z,99637.28
2022-10-24T23:53:00.793Z,99640.84
2022-10-24T23:55:28.566Z,99636.06
2022-10-24T23:57:55.492Z,99642.19
